Time;durP1;ratioP1;P1;durP2;ratioP2;P2;SDS_P1;SDS_P2;PMS_P1;PMS_P2;Temp;Humidity;BMP_temperature;BMP_pressure;BME280_temperature;BME280_humidity;BME280_pressure;Samples;Min_cycle;Max_cycle;Signal;HPM_P1;HPM_P2
2021/05/03 00:00:09;;;;;;;16.70;9.60;;;;;;;14.00;84.10;98383.00;1740866;82;21153;-63
2021/05/03 00:02:36;;;;;;;14.15;9.98;;;;;;;13.98;83.96;98382.53;1738469;82;21287;-63
2021/05/03 00:05:05;;;;;;;15.93;8.90;;;;;;;13.95;83.91;98373.62;1750702;82;21175;-64
2021/05/03 00:07:33;;;;;;;12.63;9.03;;;;;;;13.90;83.86;98377.32;1750308;82;21106;-63
2021/05/03 00:10:00;;;;;;;15.13;9.65;;;;;;;13.87;83.85;98376.61;1750615;82;21714;-64
2021/05/03 00:12:27;;;;;;;12.20;8.40;;;;;;;13.84;83.76;98377.27;1737578;82;21951;-64
2021/05/03 00:14:56;;;;;;;14.30;8.68;;;;;;;13.83;83.65;98378.95;1752180;82;21179;-64
2021/05/03 00:17:24;;;;;;;12.82;8.18;;;;;;;13.81;83.52;98387.49;1737151;82;21284;-64
2021/05/03 00:19:52;;;;;;;13.55;7.50;;;;;;;13.78;83.33;98388.70;1745440;82;21310;-64
2021/05/03 00:22:19;;;;;;;10.20;6.90;;;;;;;13.77;82.85;98385.72;1735354;82;21173;-64
2021/05/03 00:24:47;;;;;;;10.15;5.60;;;;;;;13.74;82.24;98389.11;1724553;82;21172;-64
2021/05/03 00:27:14;;;;;;;10.18;5.70;;;;;;;13.71;80.99;98388.40;1731747;82;21173;-64
2021/05/03 00:29:44;;;;;;;7.05;4.75;;;;;;;13.71;80.12;98388.40;1730250;82;21207;-64
2021/05/03 00:32:12;;;;;;;6.92;4.15;;;;;;;13.72;78.31;98391.35;1746539;82;21695;-64
2021/05/03 00:34:40;;;;;;;6.65;3.70;;;;;;;13.71;76.80;98385.08;1729540;82;21339;-63
2021/05/03 00:37:07;;;;;;;7.67;3.98;;;;;;;13.68;75.84;98395.86;1722705;83;21157;-63
2021/05/03 00:39:36;;;;;;;5.50;3.27;;;;;;;13.65;74.59;98401.42;1744798;82;21194;-65
2021/05/03 00:42:04;;;;;;;4.62;2.55;;;;;;;13.61;73.83;98400.45;1724417;82;21145;-64
2021/05/03 00:44:32;;;;;;;5.10;3.00;;;;;;;13.58;72.97;98395.64;1735808;82;21153;-64
2021/05/03 00:46:59;;;;;;;4.70;3.17;;;;;;;13.52;71.56;98390.66;1734669;82;21153;-64
2021/05/03 00:49:28;;;;;;;5.28;2.80;;;;;;;13.42;71.37;98398.08;1726432;82;21600;-63
2021/05/03 00:51:55;;;;;;;4.08;2.75;;;;;;;13.42;71.79;98400.81;1748754;82;21153;-63
2021/05/03 00:54:23;;;;;;;4.33;2.58;;;;;;;13.39;72.01;98399.28;1744553;82;21177;-63
2021/05/03 00:56:50;;;;;;;5.53;3.12;;;;;;;13.36;72.34;98395.80;1752257;82;21279;-64
2021/05/03 00:59:18;;;;;;;5.05;3.15;;;;;;;13.32;72.79;98399.75;1706582;82;21169;-63
2021/05/03 01:01:45;;;;;;;5.20;3.27;;;;;;;13.25;73.25;98404.89;1732862;82;21297;-63
2021/05/03 01:04:13;;;;;;;8.03;3.67;;;;;;;13.18;73.97;98408.66;1727438;82;21203;-64
2021/05/03 01:06:40;;;;;;;5.58;3.50;;;;;;;13.14;74.45;98407.72;1750603;82;21117;-62
2021/05/03 01:09:08;;;;;;;9.23;4.03;;;;;;;13.08;75.15;98409.50;1741761;82;21381;-64
2021/05/03 01:11:37;;;;;;;6.45;3.90;;;;;;;13.02;75.66;98406.14;1737810;81;21113;-64
2021/05/03 01:14:04;;;;;;;5.87;3.58;;;;;;;12.96;75.94;98407.42;1736167;82;21628;-64
2021/05/03 01:16:31;;;;;;;5.72;3.92;;;;;;;12.96;75.96;98417.79;1752772;82;21169;-63
2021/05/03 01:18:59;;;;;;;8.05;3.92;;;;;;;12.93;76.01;98421.72;1729058;82;21625;-63
2021/05/03 01:21:27;;;;;;;5.83;3.67;;;;;;;12.89;76.14;98424.84;1737865;82;21147;-62
2021/05/03 01:23:54;;;;;;;7.62;3.85;;;;;;;12.87;76.17;98427.88;1733307;82;21194;-63
2021/05/03 01:26:21;;;;;;;5.30;3.25;;;;;;;12.84;76.04;98429.08;1750448;82;21605;-64
2021/05/03 01:28:50;;;;;;;5.53;3.40;;;;;;;12.75;75.89;98428.27;1747692;82;21193;-63
2021/05/03 01:31:17;;;;;;;5.00;3.20;;;;;;;12.72;75.65;98439.23;1718530;82;21299;-63
2021/05/03 01:33:45;;;;;;;4.72;3.10;;;;;;;12.65;75.42;98429.89;1733471;82;21462;-63
2021/05/03 01:36:12;;;;;;;4.15;2.92;;;;;;;12.59;74.64;98428.44;1730529;82;21165;-63
2021/05/03 01:38:40;;;;;;;5.33;3.25;;;;;;;12.55;74.70;98436.45;1735324;82;21145;-63
2021/05/03 01:41:08;;;;;;;6.15;2.92;;;;;;;12.50;74.06;98437.17;1749617;82;21617;-63
2021/05/03 01:43:35;;;;;;;4.20;2.52;;;;;;;12.48;74.02;98435.55;1751856;82;21094;-63
2021/05/03 01:46:03;;;;;;;4.70;3.30;;;;;;;12.42;73.65;98443.64;1733294;82;21177;-63
2021/05/03 01:48:31;;;;;;;4.28;2.80;;;;;;;12.37;73.68;98432.05;1723125;82;21125;-63
2021/05/03 01:50:59;;;;;;;8.05;3.17;;;;;;;12.32;73.26;98439.02;1726370;82;21617;-63
2021/05/03 01:53:27;;;;;;;4.53;2.50;;;;;;;12.21;72.53;98442.58;1727687;82;21636;-64
2021/05/03 01:55:56;;;;;;;3.40;2.30;;;;;;;12.13;72.50;98443.89;1742986;82;21260;-63
2021/05/03 01:58:25;;;;;;;3.50;2.37;;;;;;;12.08;72.67;98450.27;1741865;82;21122;-63
2021/05/03 02:00:53;;;;;;;3.80;2.20;;;;;;;12.04;71.40;98445.77;1747193;82;21168;-63
2021/05/03 02:03:22;;;;;;;4.47;2.33;;;;;;;12.00;71.43;98458.42;1722962;83;21518;-63
2021/05/03 02:05:50;;;;;;;5.00;2.60;;;;;;;11.92;71.80;98462.70;1663031;85;21319;-63
2021/05/03 02:08:18;;;;;;;3.60;2.05;;;;;;;11.81;72.17;98455.88;1725468;82;21153;-64
2021/05/03 02:10:46;;;;;;;5.47;2.00;;;;;;;11.73;71.78;98449.80;1727337;82;21153;-64
2021/05/03 02:13:14;;;;;;;2.77;1.98;;;;;;;11.60;70.53;98450.65;1738315;82;21102;-64
2021/05/03 02:15:42;;;;;;;3.85;1.80;;;;;;;11.54;70.46;98459.52;1716632;82;21145;-63
2021/05/03 02:18:10;;;;;;;4.33;1.90;;;;;;;11.41;69.49;98463.88;1721525;82;21276;-63
2021/05/03 02:20:37;;;;;;;5.35;2.42;;;;;;;11.27;69.09;98459.58;1658766;86;21506;-63
2021/05/03 02:23:05;;;;;;;2.70;1.57;;;;;;;11.19;69.23;98461.69;1711300;82;21612;-63
2021/05/03 02:25:33;;;;;;;2.52;1.70;;;;;;;11.12;67.77;98481.18;1732632;82;21276;-64
2021/05/03 02:28:00;;;;;;;3.85;1.50;;;;;;;11.02;67.80;98485.45;1730659;82;21577;-63
2021/05/03 02:30:27;;;;;;;4.92;1.60;;;;;;;10.91;68.31;98485.44;1639913;86;21204;-63
2021/05/03 02:32:55;;;;;;;4.90;1.87;;;;;;;10.77;68.56;98490.09;1716792;82;21652;-62
2021/05/03 02:35:24;;;;;;;3.30;1.75;;;;;;;10.72;69.00;98491.53;1725085;82;21153;-62
2021/05/03 02:37:58;;;;;;;3.05;1.52;;;;;;;10.64;69.39;98503.12;1725612;82;21173;-63
2021/05/03 02:40:24;;;;;;;2.85;1.40;;;;;;;10.54;69.81;98514.20;1710202;82;21130;-64
2021/05/03 02:42:54;;;;;;;3.72;1.90;;;;;;;10.44;70.30;98513.84;1660041;86;21205;-62
2021/05/03 02:45:22;;;;;;;4.97;1.70;;;;;;;10.36;70.57;98521.33;1670849;86;21210;-63
2021/05/03 02:47:51;;;;;;;3.45;1.67;;;;;;;10.25;70.68;98538.37;1719450;82;21303;-63
2021/05/03 02:50:19;;;;;;;5.00;1.70;;;;;;;10.16;69.93;98535.30;1721763;82;21182;-63
2021/05/03 02:52:48;;;;;;;4.42;1.55;;;;;;;10.03;69.74;98538.17;1737406;82;21151;-63
2021/05/03 02:55:15;;;;;;;2.80;1.82;;;;;;;9.93;69.78;98545.95;1709447;83;21617;-64
2021/05/03 02:57:44;;;;;;;3.87;1.62;;;;;;;9.75;70.43;98557.64;1725303;82;21311;-63
2021/05/03 03:00:16;;;;;;;2.87;1.90;;;;;;;9.56;70.79;98550.06;1714221;82;21191;-63
2021/05/03 03:02:43;;;;;;;3.10;1.90;;;;;;;9.55;70.91;98548.98;1714746;82;21177;-64
2021/05/03 03:05:11;;;;;;;3.20;1.92;;;;;;;9.45;71.26;98566.24;1738694;82;21207;-63
2021/05/03 03:07:38;;;;;;;2.37;1.70;;;;;;;9.37;71.00;98550.59;1702395;82;21142;-63
2021/05/03 03:10:07;;;;;;;3.05;2.05;;;;;;;9.37;71.28;98569.60;1722295;82;21576;-63
2021/05/03 03:12:36;;;;;;;4.35;1.60;;;;;;;9.31;71.43;98570.77;1663276;84;21190;-63
2021/05/03 03:15:09;;;;;;;3.60;2.08;;;;;;;9.25;71.99;98580.88;1710487;83;21608;-64
2021/05/03 03:17:36;;;;;;;4.72;1.72;;;;;;;9.22;72.01;98571.95;1661012;84;21301;-63
2021/05/03 03:20:06;;;;;;;4.17;2.00;;;;;;;9.20;71.62;98570.09;1672408;84;21211;-64
2021/05/03 03:22:34;;;;;;;4.08;1.98;;;;;;;9.17;71.16;98569.33;1693548;83;21345;-63
2021/05/03 03:25:02;;;;;;;3.33;2.10;;;;;;;9.13;70.62;98577.79;1699227;83;21627;-63
2021/05/03 03:27:30;;;;;;;4.03;1.80;;;;;;;9.05;70.80;98583.03;1696477;83;21168;-63
2021/05/03 03:29:57;;;;;;;5.60;2.30;;;;;;;9.02;71.05;98584.44;1695676;84;21634;-63
2021/05/03 03:32:25;;;;;;;4.65;1.70;;;;;;;9.04;70.74;98597.16;1695471;84;21294;-63
2021/05/03 03:34:52;;;;;;;2.52;1.87;;;;;;;9.08;70.41;98610.41;1704475;83;21640;-64
2021/05/03 03:37:19;;;;;;;1.82;1.30;;;;;;;9.16;70.17;98605.71;1709168;83;21579;-63
2021/05/03 03:39:47;;;;;;;4.37;1.70;;;;;;;9.26;70.14;98604.23;1700275;83;21810;-62
2021/05/03 03:42:15;;;;;;;3.35;1.90;;;;;;;9.35;69.66;98606.55;1695609;83;21586;-63
2021/05/03 03:44:43;;;;;;;3.40;1.80;;;;;;;9.45;68.89;98606.44;1682488;83;21308;-63
2021/05/03 03:47:10;;;;;;;2.80;1.70;;;;;;;9.54;68.92;98616.64;1708352;83;21163;-62
2021/05/03 03:49:38;;;;;;;3.55;2.00;;;;;;;9.61;68.09;98615.73;1680825;84;21212;-63
2021/05/03 03:52:06;;;;;;;4.28;1.82;;;;;;;9.73;67.73;98608.77;1712093;83;21167;-63
2021/05/03 03:54:34;;;;;;;3.05;1.70;;;;;;;9.85;67.32;98607.77;1710521;83;21167;-63
2021/05/03 03:57:02;;;;;;;2.40;1.60;;;;;;;9.88;66.65;98611.25;1711806;83;21196;-63
2021/05/03 03:59:33;;;;;;;3.87;1.80;;;;;;;9.89;66.38;98627.83;1672919;84;21580;-63
2021/05/03 04:01:59;;;;;;;2.47;1.65;;;;;;;9.87;66.81;98634.13;1687702;84;21204;-64
2021/05/03 04:04:29;;;;;;;2.85;1.60;;;;;;;9.89;66.96;98640.06;1691026;83;21334;-63
2021/05/03 04:09:32;;;;;;;4.05;1.50;;;;;;;10.03;65.76;98648.83;1720269;83;21237;-63
2021/05/03 04:25:15;;;;;;;5.50;2.00;;;;;;;10.07;64.40;98660.74;1722609;82;21161;-64
2021/05/03 04:27:40;;;;;;;2.85;1.30;;;;;;;10.18;62.69;98664.97;1718095;82;21182;-64
2021/05/03 04:30:12;;;;;;;4.67;1.87;;;;;;;10.28;63.06;98664.26;1693990;84;21185;-64
2021/05/03 04:32:39;;;;;;;2.33;1.50;;;;;;;10.44;62.42;98662.13;1693261;84;21143;-65
2021/05/03 04:35:09;;;;;;;3.33;1.20;;;;;;;10.49;60.58;98661.47;1731563;82;21214;-64
2021/05/03 04:37:36;;;;;;;3.58;1.80;;;;;;;10.52;60.84;98677.78;1717721;82;21299;-65
2021/05/03 04:40:04;;;;;;;2.83;1.10;;;;;;;10.43;60.86;98667.30;1679634;84;21207;-63
2021/05/03 04:42:32;;;;;;;3.50;1.57;;;;;;;10.43;60.80;98662.67;1684479;84;21163;-62
2021/05/03 04:45:00;;;;;;;3.83;1.10;;;;;;;10.55;61.02;98673.65;1692522;84;21624;-62
2021/05/03 04:49:35;;;;;;;1.52;0.80;;;;;;;10.84;60.31;98691.37;1760551;79;22751;-63
2021/05/03 04:52:03;;;;;;;2.58;0.90;;;;;;;10.80;60.21;98680.03;1737070;82;21339;-60
2021/05/03 04:54:30;;;;;;;3.52;0.80;;;;;;;10.89;60.25;98692.66;1729896;82;21161;-63
2021/05/03 04:56:58;;;;;;;2.77;1.27;;;;;;;11.02;60.59;98688.91;1742809;82;21184;-62
2021/05/03 04:59:25;;;;;;;2.55;1.22;;;;;;;11.12;60.04;98689.53;1731879;82;21644;-61
2021/05/03 05:01:52;;;;;;;5.60;2.02;;;;;;;11.21;59.31;98705.42;1674202;85;21129;-62
2021/05/03 05:04:20;;;;;;;4.47;1.85;;;;;;;11.21;58.48;98695.08;1688899;84;21200;-63
2021/05/03 05:06:47;;;;;;;5.65;1.50;;;;;;;11.18;58.52;98706.58;1685167;84;21209;-62
2021/05/03 05:09:15;;;;;;;3.33;0.90;;;;;;;11.08;58.17;98697.23;1688807;84;21149;-62
2021/05/03 05:11:42;;;;;;;4.58;1.00;;;;;;;11.03;58.62;98696.77;1682703;84;21427;-63
2021/05/03 05:14:10;;;;;;;2.35;0.60;;;;;;;11.04;58.46;98695.66;1699657;84;21165;-63
2021/05/03 05:16:37;;;;;;;1.90;0.72;;;;;;;11.08;58.87;98706.77;1679625;84;21176;-62
2021/05/03 05:19:05;;;;;;;3.08;1.70;;;;;;;11.08;57.87;98705.41;1680327;84;21226;-62
2021/05/03 05:21:37;;;;;;;3.42;0.50;;;;;;;11.13;58.77;98707.47;1662833;85;21306;-63
2021/05/03 05:24:06;;;;;;;2.52;1.10;;;;;;;11.17;57.47;98695.42;1701142;84;21659;-62
2021/05/03 05:26:34;;;;;;;1.80;0.82;;;;;;;11.18;57.54;98702.49;1678285;85;21477;-62
2021/05/03 05:29:01;;;;;;;1.82;0.80;;;;;;;11.16;57.38;98700.64;1689667;84;21165;-63
2021/05/03 05:31:28;;;;;;;2.20;0.80;;;;;;;11.16;58.48;98695.97;1677848;84;21168;-64
2021/05/03 05:33:56;;;;;;;1.05;0.50;;;;;;;11.21;57.99;98694.53;1678622;84;21169;-63
2021/05/03 05:36:23;;;;;;;1.52;0.62;;;;;;;11.20;56.54;98698.35;1678299;84;21790;-63
2021/05/03 05:38:52;;;;;;;1.57;0.50;;;;;;;11.21;57.09;98702.70;1636729;87;21200;-62
2021/05/03 05:41:20;;;;;;;2.17;0.60;;;;;;;11.24;57.31;98695.28;1696999;84;21158;-64
2021/05/03 05:43:47;;;;;;;2.17;0.50;;;;;;;11.33;57.08;98697.58;1686534;84;21398;-64
2021/05/03 05:46:18;;;;;;;2.35;0.45;;;;;;;11.51;57.27;98701.88;1706612;84;21573;-64
2021/05/03 05:48:46;;;;;;;1.90;0.53;;;;;;;11.65;55.82;98699.95;1701006;83;21176;-62
2021/05/03 05:51:14;;;;;;;2.37;0.50;;;;;;;11.71;55.91;98702.30;1696978;84;21602;-63
2021/05/03 05:53:41;;;;;;;1.95;0.78;;;;;;;11.79;55.73;98712.50;1680888;85;21224;-62
2021/05/03 05:56:09;;;;;;;1.30;0.50;;;;;;;11.91;56.21;98715.50;1684099;85;21163;-64
2021/05/03 05:58:38;;;;;;;2.67;0.80;;;;;;;12.02;54.62;98717.46;1676884;85;21140;-63
2021/05/03 06:01:05;;;;;;;1.60;0.62;;;;;;;12.08;55.73;98729.09;1695207;84;21181;-64
2021/05/03 06:03:33;;;;;;;4.58;0.80;;;;;;;12.14;54.81;98736.85;1672636;85;21331;-63
2021/05/03 06:06:00;;;;;;;3.33;0.65;;;;;;;12.12;54.19;98739.61;1656781;85;21730;-64
2021/05/03 06:08:27;;;;;;;3.25;0.40;;;;;;;12.14;53.26;98740.13;1696063;84;21208;-62
2021/05/03 06:10:55;;;;;;;1.70;0.60;;;;;;;12.15;53.42;98757.54;1671681;84;21267;-62
2021/05/03 06:13:23;;;;;;;2.35;0.40;;;;;;;12.18;53.57;98752.05;1686937;84;21179;-61
2021/05/03 06:15:51;;;;;;;1.62;0.50;;;;;;;12.14;52.26;98743.67;1679076;84;21223;-64
2021/05/03 06:18:18;;;;;;;2.00;0.60;;;;;;;12.02;52.82;98746.09;1686213;84;21180;-61
2021/05/03 06:20:46;;;;;;;1.42;0.60;;;;;;;12.06;52.69;98747.11;1691452;84;21577;-61
2021/05/03 06:23:15;;;;;;;1.20;0.50;;;;;;;12.25;53.71;98745.63;1686464;84;21192;-60
2021/05/03 06:25:44;;;;;;;3.45;0.80;;;;;;;12.38;52.47;98750.23;1657431;84;21267;-63
2021/05/03 06:28:11;;;;;;;2.77;1.00;;;;;;;12.48;54.03;98759.55;1689655;84;21189;-62
2021/05/03 06:30:39;;;;;;;5.03;0.65;;;;;;;12.48;52.98;98765.02;1688387;84;21177;-62
2021/05/03 06:33:07;;;;;;;3.90;1.00;;;;;;;12.32;52.60;98767.29;1693168;84;21637;-60
2021/05/03 06:35:34;;;;;;;2.10;0.65;;;;;;;12.12;53.58;98772.34;1687932;84;21210;-64
2021/05/03 06:38:05;;;;;;;2.50;0.70;;;;;;;12.11;54.27;98770.20;1674901;84;21432;-62
2021/05/03 06:40:31;;;;;;;1.95;0.90;;;;;;;12.03;54.02;98758.64;1688726;84;21177;-62
2021/05/03 06:42:58;;;;;;;2.02;0.78;;;;;;;11.82;54.28;98769.16;1686358;84;21150;-62
2021/05/03 06:45:30;;;;;;;5.50;1.37;;;;;;;11.69;56.58;98781.39;1676191;84;21523;-62
2021/05/03 06:47:57;;;;;;;2.67;0.50;;;;;;;11.65;56.54;98780.38;1676755;84;21221;-62
2021/05/03 06:50:25;;;;;;;2.17;0.62;;;;;;;11.58;56.40;98771.78;1680792;85;21154;-61
2021/05/03 06:52:53;;;;;;;3.45;0.70;;;;;;;11.54;56.40;98783.84;1687437;85;21696;-62
2021/05/03 06:55:20;;;;;;;1.72;0.60;;;;;;;11.49;57.11;98794.28;1665212;85;21711;-61
2021/05/03 06:57:47;;;;;;;2.58;0.85;;;;;;;11.47;56.42;98805.23;1690234;85;21360;-62
2021/05/03 07:00:15;;;;;;;2.35;0.65;;;;;;;11.36;55.67;98811.97;1680752;85;21194;-61
2021/05/03 07:02:43;;;;;;;2.08;0.80;;;;;;;11.15;55.67;98801.16;1728363;82;21163;-62
2021/05/03 07:05:11;;;;;;;1.87;0.60;;;;;;;11.05;56.81;98801.33;1720989;82;21567;-60
2021/05/03 07:07:39;;;;;;;2.02;0.50;;;;;;;10.97;56.12;98806.89;1711550;82;21157;-62
2021/05/03 07:10:08;;;;;;;2.92;1.42;;;;;;;10.96;56.72;98816.16;1730652;82;21166;-60
2021/05/03 07:12:43;;;;;;;1.35;0.62;;;;;;;10.97;57.48;98819.15;1730879;82;21157;-61
2021/05/03 07:15:13;;;;;;;2.70;0.70;;;;;;;11.09;56.15;98814.03;1736414;82;21569;-60
2021/05/03 07:17:41;;;;;;;3.40;0.68;;;;;;;11.15;55.91;98811.50;1726193;82;21296;-60
2021/05/03 07:20:10;;;;;;;1.47;0.60;;;;;;;11.12;56.18;98814.02;1721288;82;21288;-61
2021/05/03 07:22:37;;;;;;;1.82;0.72;;;;;;;11.08;56.90;98823.88;1719573;82;21598;-63
2021/05/03 07:25:07;;;;;;;5.00;2.27;;;;;;;10.92;55.83;98821.94;1716806;82;21162;-60
2021/05/03 07:27:36;;;;;;;3.52;1.00;;;;;;;10.80;56.70;98829.76;1663390;86;21371;-61
2021/05/03 07:30:08;;;;;;;1.37;0.80;;;;;;;10.66;57.32;98812.00;1734967;82;21331;-61
2021/05/03 07:32:36;;;;;;;1.80;0.80;;;;;;;10.56;58.11;98829.81;1726541;82;21492;-61
2021/05/03 07:35:06;;;;;;;1.77;0.70;;;;;;;10.50;58.03;98844.59;1728636;82;21298;-62
2021/05/03 07:37:34;;;;;;;1.20;0.60;;;;;;;10.41;58.71;98843.09;1719916;82;21614;-62
2021/05/03 07:40:04;;;;;;;4.40;1.42;;;;;;;10.30;59.60;98851.67;1720796;82;21118;-60
2021/05/03 07:42:32;;;;;;;3.00;0.80;;;;;;;10.24;60.09;98853.62;1730543;82;21315;-62
2021/05/03 07:45:02;;;;;;;2.62;0.75;;;;;;;10.21;60.25;98855.57;1707274;84;21621;-62
2021/05/03 07:47:30;;;;;;;3.47;0.88;;;;;;;10.17;60.63;98861.32;1707953;84;21335;-62
2021/05/03 07:49:59;;;;;;;4.08;1.47;;;;;;;10.13;61.11;98850.73;1716336;82;21593;-63
2021/05/03 07:52:31;;;;;;;2.40;0.88;;;;;;;10.11;61.70;98863.01;1733794;82;21165;-64
2021/05/03 07:54:59;;;;;;;2.33;1.27;;;;;;;10.07;61.85;98867.40;1721277;82;21169;-62
2021/05/03 07:57:30;;;;;;;2.83;0.80;;;;;;;10.03;61.85;98867.17;1710575;82;21558;-63
2021/05/03 07:59:59;;;;;;;4.22;1.40;;;;;;;9.97;59.80;98865.61;1720230;82;21126;-62
2021/05/03 08:02:28;;;;;;;1.60;0.85;;;;;;;9.92;60.71;98861.58;1719738;82;21149;-62
2021/05/03 08:04:58;;;;;;;2.15;1.00;;;;;;;9.96;61.51;98876.22;1717467;82;21714;-61
2021/05/03 08:07:29;;;;;;;3.02;0.85;;;;;;;10.06;60.01;98873.37;1737956;82;21574;-61
2021/05/03 08:10:01;;;;;;;1.20;0.60;;;;;;;10.12;58.25;98870.08;1734773;82;21549;-61
2021/05/03 08:12:32;;;;;;;1.80;0.78;;;;;;;10.15;57.79;98863.53;1726953;82;21299;-60
2021/05/03 08:15:09;;;;;;;0.88;0.50;;;;;;;10.19;58.63;98878.73;1714652;82;21162;-61
2021/05/03 08:17:34;;;;;;;2.45;1.07;;;;;;;10.20;56.71;98872.98;1721308;82;21603;-61
2021/05/03 08:20:03;;;;;;;1.70;0.80;;;;;;;10.31;56.78;98877.75;1717243;82;21167;-61
2021/05/03 08:22:31;;;;;;;2.67;0.80;;;;;;;10.38;55.93;98872.80;1737600;82;21178;-62
2021/05/03 08:24:58;;;;;;;2.65;0.93;;;;;;;10.46;55.48;98894.70;1737954;82;21301;-62
2021/05/03 08:27:26;;;;;;;3.30;1.00;;;;;;;10.58;55.91;98886.13;1738056;82;21182;-62
2021/05/03 08:30:06;;;;;;;2.10;0.88;;;;;;;10.62;54.91;98876.83;1717306;82;21173;-61
2021/05/03 08:32:41;;;;;;;3.05;0.85;;;;;;;10.66;55.02;98884.12;1708800;82;21149;-62
2021/05/03 08:35:09;;;;;;;1.90;0.90;;;;;;;10.68;56.51;98881.09;1708710;84;21319;-64
2021/05/03 08:37:37;;;;;;;1.62;0.88;;;;;;;10.76;54.89;98873.09;1708957;82;21315;-62
2021/05/03 08:40:07;;;;;;;2.83;0.68;;;;;;;10.91;55.36;98866.05;1710328;82;21167;-62
2021/05/03 08:42:35;;;;;;;1.45;0.88;;;;;;;11.06;54.86;98876.45;1708886;82;21150;-63
2021/05/03 08:45:06;;;;;;;2.40;0.88;;;;;;;11.10;54.65;98876.12;1708400;84;21594;-64
2021/05/03 08:47:36;;;;;;;1.65;0.90;;;;;;;11.15;53.40;98882.33;1708824;82;21118;-63
2021/05/03 08:50:15;;;;;;;2.25;0.85;;;;;;;11.12;53.05;98892.45;1723894;82;21175;-62
2021/05/03 08:52:54;;;;;;;1.05;0.60;;;;;;;11.10;53.45;98883.75;1737597;82;21118;-62
2021/05/03 08:55:39;;;;;;;1.30;0.70;;;;;;;11.13;54.18;98883.16;1814741;79;23000;-63
2021/05/03 08:58:17;;;;;;;2.15;0.90;;;;;;;11.08;53.84;98891.42;1701967;83;21746;-62
2021/05/03 09:00:50;;;;;;;1.65;0.70;;;;;;;11.12;54.15;98887.01;1724236;83;21620;-63
2021/05/03 09:03:21;;;;;;;1.77;0.80;;;;;;;11.24;54.24;98887.89;1705752;83;21570;-62
2021/05/03 09:06:05;;;;;;;3.47;1.10;;;;;;;11.33;53.77;98889.67;1700209;83;21600;-62
2021/05/03 09:08:38;;;;;;;1.82;1.07;;;;;;;11.39;53.97;98895.84;1711324;83;21633;-63
2021/05/03 09:11:06;;;;;;;3.10;1.20;;;;;;;11.37;53.93;98892.61;1712328;83;21177;-64
2021/05/03 09:13:44;;;;;;;3.75;0.95;;;;;;;11.46;54.22;98892.99;1698072;83;21347;-63
2021/05/03 09:16:22;;;;;;;2.63;1.10;;;;;;;11.53;53.20;98893.16;1818143;79;22961;-61
2021/05/03 09:18:55;;;;;;;3.95;1.25;;;;;;;11.51;53.01;98895.38;1781559;80;21184;-61
2021/05/03 09:21:33;;;;;;;1.85;1.05;;;;;;;11.59;53.54;98900.12;1742442;81;21169;-62
2021/05/03 09:24:13;;;;;;;2.35;1.05;;;;;;;11.38;52.17;98874.59;1724004;83;21226;-63
2021/05/03 09:26:50;;;;;;;3.08;1.15;;;;;;;11.41;52.63;98892.25;1739319;81;21124;-63
2021/05/03 09:29:31;;;;;;;4.62;1.17;;;;;;;11.28;52.34;98884.29;1760579;81;21198;-63
2021/05/03 09:32:12;;;;;;;2.65;1.12;;;;;;;11.20;52.79;98890.95;1760646;81;21160;-64
2021/05/03 09:34:52;;;;;;;1.85;0.90;;;;;;;11.20;53.27;98887.67;1759592;80;21193;-64
2021/05/03 09:37:31;;;;;;;2.55;0.70;;;;;;;11.27;53.47;98885.94;1756990;81;21161;-63
2021/05/03 09:40:16;;;;;;;4.05;1.12;;;;;;;11.29;53.16;98894.64;1690055;84;21227;-62
2021/05/03 09:42:55;;;;;;;3.65;0.95;;;;;;;11.22;52.88;98890.94;1694504;83;21137;-62
2021/05/03 09:45:32;;;;;;;3.83;1.35;;;;;;;11.06;51.67;98884.62;1725980;83;21135;-67
2021/05/03 09:48:00;;;;;;;2.62;1.10;;;;;;;10.95;52.39;98898.95;1693310;84;21582;-68
2021/05/03 09:50:31;;;;;;;5.80;1.00;;;;;;;10.86;52.15;98878.94;1692717;85;21324;-67
2021/05/03 09:53:12;;;;;;;5.33;1.10;;;;;;;10.95;53.12;98871.72;1701237;84;21141;-67
2021/05/03 09:55:48;;;;;;;4.28;1.00;;;;;;;11.20;52.20;98884.95;1692314;84;21163;-69
2021/05/03 09:58:25;;;;;;;2.85;1.00;;;;;;;11.36;51.83;98870.00;1701784;83;21193;-69
2021/05/03 10:00:55;;;;;;;2.27;0.95;;;;;;;11.60;50.74;98893.58;1699027;83;21169;-69
2021/05/03 10:06:16;;;;;;;3.77;1.03;;;;;;;11.93;50.52;98900.12;1846041;77;22880;-67
2021/05/03 10:08:48;;;;;;;3.60;1.00;;;;;;;12.01;50.45;98909.50;1812898;79;21101;-67
2021/05/03 10:11:17;;;;;;;2.70;0.88;;;;;;;12.19;50.27;98912.70;1770402;80;21162;-68
2021/05/03 10:13:48;;;;;;;2.33;1.00;;;;;;;12.17;51.02;98912.77;1783241;80;21132;-68
2021/05/03 10:16:15;;;;;;;4.37;0.90;;;;;;;12.03;50.49;98911.39;1784588;80;21116;-68
2021/05/03 10:18:43;;;;;;;8.65;0.90;;;;;;;11.91;50.17;98905.05;1784385;80;21191;-68
2021/05/03 10:21:13;;;;;;;2.02;0.95;;;;;;;11.81;50.14;98918.05;1777093;80;21129;-69
2021/05/03 10:23:43;;;;;;;1.70;0.90;;;;;;;11.74;51.84;98918.45;1707749;84;21190;-63
2021/05/03 10:26:10;;;;;;;5.40;1.17;;;;;;;11.87;50.65;98911.39;1707528;83;21309;-63
2021/05/03 10:28:57;;;;;;;3.17;0.98;;;;;;;11.97;50.06;98919.42;1707619;84;21165;-63
2021/05/03 10:31:25;;;;;;;2.58;1.20;;;;;;;12.16;51.25;98928.32;1733019;82;21150;-63
2021/05/03 10:33:53;;;;;;;4.80;1.12;;;;;;;12.51;50.22;98928.73;1707476;83;21205;-63
2021/05/03 10:36:38;;;;;;;3.33;1.40;;;;;;;12.69;48.85;98930.55;1739774;82;21199;-64
2021/05/03 10:39:33;;;;;;;3.83;1.20;;;;;;;12.77;48.50;98935.30;1647513;83;21400;-63
2021/05/03 10:42:07;;;;;;;3.00;1.30;;;;;;;12.62;47.78;98947.34;1701409;83;21744;-60
2021/05/03 10:44:38;;;;;;;2.42;1.30;;;;;;;12.33;48.35;98933.17;1683992;84;21755;-60
2021/05/03 10:47:43;;;;;;;2.58;1.50;;;;;;;12.11;49.29;98933.89;1707891;82;21194;-63
2021/05/03 10:53:31;;;;;;;6.53;1.20;;;;;;;12.21;48.94;98918.69;1767377;79;22909;-62
2021/05/03 10:55:59;;;;;;;;;;;;;;;12.06;49.01;98935.88;1710316;83;21141;-62
2021/05/03 10:58:26;;;;;;;8.08;2.30;;;;;;;12.08;50.46;98935.83;1701110;83;20268;-62
2021/05/03 11:01:02;;;;;;;2.08;1.50;;;;;;;12.07;50.22;98936.15;1707516;83;21589;-61
2021/05/03 11:03:58;;;;;;;2.70;1.65;;;;;;;12.09;49.27;98936.64;1715824;83;21311;-63
2021/05/03 11:06:50;;;;;;;3.55;1.50;;;;;;;12.03;50.15;98933.21;1714082;83;21204;-61
2021/05/03 11:12:25;;;;;;;6.00;1.50;;;;;;;12.59;49.35;98941.69;1768580;79;22874;-68
2021/05/03 11:15:22;;;;;;;4.55;1.40;;;;;;;12.57;48.93;98933.81;1722777;82;21315;-68
2021/05/03 11:18:19;;;;;;;4.65;2.65;;;;;;;12.64;50.63;98934.22;1733887;82;21161;-66
2021/05/03 11:21:07;;;;;;;9.13;3.90;;;;;;;12.73;48.27;98942.48;1732614;82;21311;-63
2021/05/03 11:23:35;;;;;;;9.05;3.58;;;;;;;12.74;47.23;98944.11;1729013;82;21685;-63
2021/05/03 11:26:03;;;;;;;6.28;2.20;;;;;;;12.65;47.93;98937.73;1728974;82;21334;-61
2021/05/03 11:28:38;;;;;;;7.30;1.95;;;;;;;12.45;47.72;98945.78;1721327;82;21788;-62
2021/05/03 11:31:14;;;;;;;4.28;1.40;;;;;;;12.45;46.95;98935.67;1656548;85;21213;-62
2021/05/03 11:33:50;;;;;;;;;;;;;;;12.55;46.88;98940.67;1699274;83;21334;-61
2021/05/03 11:36:22;;;;;;;2.83;1.42;;;;;;;12.58;45.71;98937.33;1662613;86;20165;-61
2021/05/03 11:38:53;;;;;;;6.60;1.17;;;;;;;12.47;46.41;98943.55;1683787;84;21338;-62
2021/05/03 11:44:11;;;;;;;4.23;1.50;;;;;;;12.49;45.25;98941.34;1757796;79;22693;-61
2021/05/03 11:46:35;;;;;;;3.42;1.40;;;;;;;12.46;46.68;98958.33;1715803;83;21682;-62
2021/05/03 11:49:16;;;;;;;7.37;1.62;;;;;;;12.55;47.27;98947.49;1651221;87;21220;-66
2021/05/03 11:51:57;;;;;;;6.05;2.15;;;;;;;12.60;46.33;98946.86;1657558;85;21178;-62
2021/05/03 11:54:34;;;;;;;7.90;1.70;;;;;;;12.67;46.22;98952.72;1660676;85;22050;-61
2021/05/03 11:57:06;;;;;;;;;;;;;;;12.69;47.17;98941.47;1676059;85;21129;-61
2021/05/03 11:59:35;;;;;;;15.45;2.12;;;;;;;12.79;47.80;98954.91;1662971;85;20480;-63
2021/05/03 12:02:10;;;;;;;8.38;2.17;;;;;;;12.83;47.67;98951.83;1662316;85;21224;-61
2021/05/03 12:04:41;;;;;;;4.80;1.30;;;;;;;12.80;47.62;98940.16;1665501;85;21380;-62
2021/05/03 12:07:30;;;;;;;4.50;1.10;;;;;;;12.95;47.89;98947.48;1665386;85;21449;-61
2021/05/03 12:10:11;;;;;;;9.30;1.77;;;;;;;13.11;45.81;98937.03;1666955;85;21153;-61
2021/05/03 12:12:42;;;;;;;10.85;1.75;;;;;;;13.18;45.79;98949.72;1664389;84;21213;-63
2021/05/03 12:15:17;;;;;;;7.37;1.80;;;;;;;13.18;45.83;98953.03;1662832;85;21611;-62
2021/05/03 12:17:44;;;;;;;4.08;1.50;;;;;;;13.23;47.08;98943.34;1657061;85;21180;-62